sensor_id;sensor_type;location;lat;lon;timestamp;temperature;humidity
7708;DHT22;3896;48.758;8.888;2022-11-15T00:01:28;9.90;99.90
7708;DHT22;3896;48.758;8.888;2022-11-15T00:03:53;9.90;99.90
7708;DHT22;3896;48.758;8.888;2022-11-15T00:06:19;9.90;99.90
7708;DHT22;3896;48.758;8.888;2022-11-15T00:08:45;9.90;99.90
7708;DHT22;3896;48.758;8.888;2022-11-15T00:11:12;9.80;99.90
7708;DHT22;3896;48.758;8.888;2022-11-15T00:13:38;9.80;99.90
7708;DHT22;3896;48.758;8.888;2022-11-15T00:16:04;9.70;99.90
7708;DHT22;3896;48.758;8.888;2022-11-15T00:18:30;9.70;99.90
7708;DHT22;3896;48.758;8.888;2022-11-15T00:21:02;9.70;99.90
7708;DHT22;3896;48.758;8.888;2022-11-15T00:23:28;9.70;99.90
7708;DHT22;3896;48.758;8.888;2022-11-15T00:25:57;9.70;99.90
7708;DHT22;3896;48.758;8.888;2022-11-15T00:28:24;9.60;99.90
7708;DHT22;3896;48.758;8.888;2022-11-15T00:30:49;9.60;99.90
7708;DHT22;3896;48.758;8.888;2022-11-15T00:33:15;9.60;99.90
7708;DHT22;3896;48.758;8.888;2022-11-15T00:35:41;9.50;99.90
7708;DHT22;3896;48.758;8.888;2022-11-15T00:38:06;9.50;99.90
7708;DHT22;3896;48.758;8.888;2022-11-15T00:40:32;9.40;99.90
7708;DHT22;3896;48.758;8.888;2022-11-15T00:42:58;9.40;99.90
7708;DHT22;3896;48.758;8.888;2022-11-15T00:45:24;9.30;99.90
7708;DHT22;3896;48.758;8.888;2022-11-15T00:47:50;9.30;99.90
7708;DHT22;3896;48.758;8.888;2022-11-15T00:50:16;9.30;99.90
7708;DHT22;3896;48.758;8.888;2022-11-15T00:52:42;9.20;99.90
7708;DHT22;3896;48.758;8.888;2022-11-15T00:55:18;9.20;99.90
7708;DHT22;3896;48.758;8.888;2022-11-15T00:57:44;9.10;99.90
7708;DHT22;3896;48.758;8.888;2022-11-15T01:00:10;9.00;99.90
7708;DHT22;3896;48.758;8.888;2022-11-15T01:02:36;9.00;99.90
7708;DHT22;3896;48.758;8.888;2022-11-15T01:05:02;8.90;99.90
7708;DHT22;3896;48.758;8.888;2022-11-15T01:07:27;8.90;99.90
7708;DHT22;3896;48.758;8.888;2022-11-15T01:09:53;8.80;99.90
7708;DHT22;3896;48.758;8.888;2022-11-15T01:12:19;8.70;99.90
7708;DHT22;3896;48.758;8.888;2022-11-15T01:14:44;8.70;99.90
7708;DHT22;3896;48.758;8.888;2022-11-15T01:17:10;8.60;99.90
7708;DHT22;3896;48.758;8.888;2022-11-15T01:19:36;8.60;99.90
7708;DHT22;3896;48.758;8.888;2022-11-15T01:22:01;8.50;99.90
7708;DHT22;3896;48.758;8.888;2022-11-15T01:24:27;8.50;99.90
7708;DHT22;3896;48.758;8.888;2022-11-15T01:26:53;8.40;99.90
7708;DHT22;3896;48.758;8.888;2022-11-15T01:29:19;8.40;99.90
7708;DHT22;3896;48.758;8.888;2022-11-15T01:31:44;8.30;99.90
7708;DHT22;3896;48.758;8.888;2022-11-15T01:34:10;8.30;99.90
7708;DHT22;3896;48.758;8.888;2022-11-15T01:36:35;8.30;99.90
7708;DHT22;3896;48.758;8.888;2022-11-15T01:39:02;8.20;99.90
7708;DHT22;3896;48.758;8.888;2022-11-15T01:41:32;8.20;99.90
7708;DHT22;3896;48.758;8.888;2022-11-15T01:47:04;8.10;99.90
7708;DHT22;3896;48.758;8.888;2022-11-15T01:49:33;8.00;99.90
7708;DHT22;3896;48.758;8.888;2022-11-15T01:52:02;8.00;99.90
7708;DHT22;3896;48.758;8.888;2022-11-15T01:54:29;8.00;99.90
7708;DHT22;3896;48.758;8.888;2022-11-15T01:57:01;8.00;99.90
7708;DHT22;3896;48.758;8.888;2022-11-15T01:59:28;8.00;99.90
7708;DHT22;3896;48.758;8.888;2022-11-15T02:01:54;8.00;99.90
7708;DHT22;3896;48.758;8.888;2022-11-15T02:04:24;7.90;99.90
7708;DHT22;3896;48.758;8.888;2022-11-15T02:06:50;7.90;99.90
7708;DHT22;3896;48.758;8.888;2022-11-15T02:09:17;7.90;99.90
7708;DHT22;3896;48.758;8.888;2022-11-15T02:11:44;7.90;99.90
7708;DHT22;3896;48.758;8.888;2022-11-15T02:14:10;7.90;99.90
7708;DHT22;3896;48.758;8.888;2022-11-15T02:31:26;7.80;99.90
7708;DHT22;3896;48.758;8.888;2022-11-15T02:34:22;7.80;99.90
7708;DHT22;3896;48.758;8.888;2022-11-15T02:37:21;7.80;99.90
7708;DHT22;3896;48.758;8.888;2022-11-15T02:39:51;7.70;99.90
7708;DHT22;3896;48.758;8.888;2022-11-15T02:42:23;7.80;99.90
7708;DHT22;3896;48.758;8.888;2022-11-15T02:45:12;7.80;99.90
7708;DHT22;3896;48.758;8.888;2022-11-15T02:47:43;7.80;99.90
7708;DHT22;3896;48.758;8.888;2022-11-15T02:50:12;7.80;99.90
7708;DHT22;3896;48.758;8.888;2022-11-15T02:52:38;7.80;99.90
7708;DHT22;3896;48.758;8.888;2022-11-15T02:55:04;7.80;99.90
7708;DHT22;3896;48.758;8.888;2022-11-15T02:57:43;7.80;99.90
7708;DHT22;3896;48.758;8.888;2022-11-15T03:00:18;7.80;99.90
7708;DHT22;3896;48.758;8.888;2022-11-15T03:10:56;7.80;99.90
7708;DHT22;3896;48.758;8.888;2022-11-15T03:13:39;7.80;99.90
7708;DHT22;3896;48.758;8.888;2022-11-15T03:19:26;7.80;99.90
7708;DHT22;3896;48.758;8.888;2022-11-15T03:21:55;7.80;99.90
7708;DHT22;3896;48.758;8.888;2022-11-15T03:24:23;7.80;99.90
7708;DHT22;3896;48.758;8.888;2022-11-15T03:26:52;7.80;99.90
7708;DHT22;3896;48.758;8.888;2022-11-15T03:29:24;7.70;99.90
7708;DHT22;3896;48.758;8.888;2022-11-15T03:31:55;7.70;99.90
7708;DHT22;3896;48.758;8.888;2022-11-15T03:37:14;7.70;99.90
7708;DHT22;3896;48.758;8.888;2022-11-15T03:39:42;7.70;99.90
7708;DHT22;3896;48.758;8.888;2022-11-15T03:44:47;7.70;99.90
7708;DHT22;3896;48.758;8.888;2022-11-15T03:50:22;7.70;99.90
7708;DHT22;3896;48.758;8.888;2022-11-15T03:52:48;7.70;99.90
7708;DHT22;3896;48.758;8.888;2022-11-15T03:55:18;7.70;99.90
7708;DHT22;3896;48.758;8.888;2022-11-15T03:57:44;7.70;99.90
7708;DHT22;3896;48.758;8.888;2022-11-15T04:00:10;7.70;99.90
7708;DHT22;3896;48.758;8.888;2022-11-15T04:02:36;7.70;99.90
7708;DHT22;3896;48.758;8.888;2022-11-15T04:05:02;7.70;99.90
7708;DHT22;3896;48.758;8.888;2022-11-15T04:07:28;7.70;99.90
7708;DHT22;3896;48.758;8.888;2022-11-15T04:09:53;7.70;99.90
7708;DHT22;3896;48.758;8.888;2022-11-15T04:12:35;7.70;99.90
7708;DHT22;3896;48.758;8.888;2022-11-15T04:15:04;7.70;99.90
7708;DHT22;3896;48.758;8.888;2022-11-15T04:19:59;7.70;99.90
7708;DHT22;3896;48.758;8.888;2022-11-15T04:22:43;7.70;99.90
7708;DHT22;3896;48.758;8.888;2022-11-15T04:25:28;7.70;99.90
7708;DHT22;3896;48.758;8.888;2022-11-15T04:27:54;7.70;99.90
7708;DHT22;3896;48.758;8.888;2022-11-15T04:30:20;7.70;99.90
7708;DHT22;3896;48.758;8.888;2022-11-15T04:32:45;7.70;99.90
7708;DHT22;3896;48.758;8.888;2022-11-15T04:35:11;7.80;99.90
7708;DHT22;3896;48.758;8.888;2022-11-15T04:37:37;7.70;99.90
7708;DHT22;3896;48.758;8.888;2022-11-15T04:40:02;7.80;99.90
7708;DHT22;3896;48.758;8.888;2022-11-15T04:42:28;7.80;99.90
7708;DHT22;3896;48.758;8.888;2022-11-15T04:44:54;7.80;99.90
7708;DHT22;3896;48.758;8.888;2022-11-15T04:47:19;7.80;99.90
7708;DHT22;3896;48.758;8.888;2022-11-15T04:49:45;7.80;99.90
7708;DHT22;3896;48.758;8.888;2022-11-15T04:52:11;7.80;99.90
7708;DHT22;3896;48.758;8.888;2022-11-15T04:54:36;7.90;99.90
7708;DHT22;3896;48.758;8.888;2022-11-15T04:57:02;7.90;99.90
7708;DHT22;3896;48.758;8.888;2022-11-15T04:59:27;7.90;99.90
7708;DHT22;3896;48.758;8.888;2022-11-15T05:01:53;7.90;99.90
7708;DHT22;3896;48.758;8.888;2022-11-15T05:04:18;7.90;99.90
7708;DHT22;3896;48.758;8.888;2022-11-15T05:06:48;7.90;99.90
7708;DHT22;3896;48.758;8.888;2022-11-15T05:09:14;7.90;99.90
7708;DHT22;3896;48.758;8.888;2022-11-15T05:11:40;7.90;99.90
7708;DHT22;3896;48.758;8.888;2022-11-15T05:14:06;8.00;99.90
7708;DHT22;3896;48.758;8.888;2022-11-15T05:16:32;8.00;99.90
7708;DHT22;3896;48.758;8.888;2022-11-15T05:18:57;8.00;99.90
7708;DHT22;3896;48.758;8.888;2022-11-15T05:21:23;8.00;99.90
7708;DHT22;3896;48.758;8.888;2022-11-15T05:23:48;8.00;99.90
7708;DHT22;3896;48.758;8.888;2022-11-15T05:26:16;8.00;99.90
7708;DHT22;3896;48.758;8.888;2022-11-15T05:28:43;8.00;99.90
7708;DHT22;3896;48.758;8.888;2022-11-15T05:31:11;8.10;99.90
7708;DHT22;3896;48.758;8.888;2022-11-15T05:33:38;8.10;99.90
7708;DHT22;3896;48.758;8.888;2022-11-15T05:38:41;8.10;99.90
7708;DHT22;3896;48.758;8.888;2022-11-15T05:41:07;8.10;99.90
7708;DHT22;3896;48.758;8.888;2022-11-15T05:43:35;8.10;99.90
7708;DHT22;3896;48.758;8.888;2022-11-15T05:46:02;8.20;99.90
7708;DHT22;3896;48.758;8.888;2022-11-15T05:48:28;8.20;99.90
7708;DHT22;3896;48.758;8.888;2022-11-15T05:50:54;8.20;99.90
7708;DHT22;3896;48.758;8.888;2022-11-15T05:53:23;8.20;99.90
7708;DHT22;3896;48.758;8.888;2022-11-15T05:55:50;8.20;99.90
7708;DHT22;3896;48.758;8.888;2022-11-15T05:58:18;8.30;99.90
7708;DHT22;3896;48.758;8.888;2022-11-15T06:00:44;8.30;99.90
7708;DHT22;3896;48.758;8.888;2022-11-15T06:05:51;8.30;99.90
7708;DHT22;3896;48.758;8.888;2022-11-15T06:08:17;8.30;99.90
7708;DHT22;3896;48.758;8.888;2022-11-15T06:10:43;8.30;99.90
7708;DHT22;3896;48.758;8.888;2022-11-15T06:13:08;8.30;99.90
7708;DHT22;3896;48.758;8.888;2022-11-15T06:15:34;8.30;99.90
7708;DHT22;3896;48.758;8.888;2022-11-15T06:18:00;8.30;99.90
7708;DHT22;3896;48.758;8.888;2022-11-15T06:20:27;8.30;99.90
7708;DHT22;3896;48.758;8.888;2022-11-15T06:23:01;8.30;99.90
7708;DHT22;3896;48.758;8.888;2022-11-15T06:25:27;8.30;99.90
7708;DHT22;3896;48.758;8.888;2022-11-15T06:27:55;8.30;99.90
7708;DHT22;3896;48.758;8.888;2022-11-15T06:30:22;8.30;99.90
7708;DHT22;3896;48.758;8.888;2022-11-15T06:32:48;8.30;99.90
7708;DHT22;3896;48.758;8.888;2022-11-15T06:35:13;8.30;99.90
7708;DHT22;3896;48.758;8.888;2022-11-15T06:37:39;8.30;99.90
7708;DHT22;3896;48.758;8.888;2022-11-15T06:40:06;8.30;99.90
7708;DHT22;3896;48.758;8.888;2022-11-15T06:42:32;8.30;99.90
7708;DHT22;3896;48.758;8.888;2022-11-15T06:44:58;8.30;99.90
7708;DHT22;3896;48.758;8.888;2022-11-15T06:47:24;8.40;99.90
7708;DHT22;3896;48.758;8.888;2022-11-15T06:49:49;8.40;99.90
7708;DHT22;3896;48.758;8.888;2022-11-15T06:52:15;8.40;99.90
7708;DHT22;3896;48.758;8.888;2022-11-15T06:54:43;8.40;99.90
7708;DHT22;3896;48.758;8.888;2022-11-15T06:57:09;8.40;99.90
7708;DHT22;3896;48.758;8.888;2022-11-15T06:59:34;8.40;99.90
7708;DHT22;3896;48.758;8.888;2022-11-15T07:02:00;8.40;99.90
7708;DHT22;3896;48.758;8.888;2022-11-15T07:04:26;8.40;99.90
7708;DHT22;3896;48.758;8.888;2022-11-15T07:06:51;8.40;99.90
7708;DHT22;3896;48.758;8.888;2022-11-15T07:09:17;8.40;99.90
7708;DHT22;3896;48.758;8.888;2022-11-15T07:11:42;8.40;99.90
7708;DHT22;3896;48.758;8.888;2022-11-15T07:14:08;8.40;99.90
7708;DHT22;3896;48.758;8.888;2022-11-15T07:16:34;8.40;99.90
7708;DHT22;3896;48.758;8.888;2022-11-15T07:18:59;8.50;99.90
7708;DHT22;3896;48.758;8.888;2022-11-15T07:21:25;8.50;99.90
7708;DHT22;3896;48.758;8.888;2022-11-15T07:23:51;8.50;99.90
7708;DHT22;3896;48.758;8.888;2022-11-15T07:26:16;8.50;99.90
7708;DHT22;3896;48.758;8.888;2022-11-15T07:28:42;8.50;99.90
7708;DHT22;3896;48.758;8.888;2022-11-15T07:31:08;8.50;99.90
7708;DHT22;3896;48.758;8.888;2022-11-15T07:33:34;8.60;99.90
7708;DHT22;3896;48.758;8.888;2022-11-15T07:36:01;8.60;99.90
7708;DHT22;3896;48.758;8.888;2022-11-15T07:38:28;8.70;99.90
7708;DHT22;3896;48.758;8.888;2022-11-15T07:40:57;8.70;99.90
7708;DHT22;3896;48.758;8.888;2022-11-15T07:43:23;8.70;99.90
7708;DHT22;3896;48.758;8.888;2022-11-15T07:45:49;8.80;99.90
7708;DHT22;3896;48.758;8.888;2022-11-15T07:48:15;8.80;99.90
7708;DHT22;3896;48.758;8.888;2022-11-15T07:50:41;8.90;99.90
7708;DHT22;3896;48.758;8.888;2022-11-15T07:53:08;8.90;99.90
7708;DHT22;3896;48.758;8.888;2022-11-15T07:55:34;8.90;99.90
7708;DHT22;3896;48.758;8.888;2022-11-15T07:58:04;8.90;99.90
7708;DHT22;3896;48.758;8.888;2022-11-15T08:00:30;9.00;99.90
7708;DHT22;3896;48.758;8.888;2022-11-15T08:03:06;9.00;99.90
7708;DHT22;3896;48.758;8.888;2022-11-15T08:05:33;9.00;99.90
7708;DHT22;3896;48.758;8.888;2022-11-15T08:07:59;9.10;99.90
7708;DHT22;3896;48.758;8.888;2022-11-15T08:10:26;9.10;99.90
7708;DHT22;3896;48.758;8.888;2022-11-15T08:13:06;9.20;99.90
7708;DHT22;3896;48.758;8.888;2022-11-15T08:15:33;9.20;99.90
7708;DHT22;3896;48.758;8.888;2022-11-15T08:18:05;9.30;99.90
7708;DHT22;3896;48.758;8.888;2022-11-15T08:20:31;9.40;99.90
7708;DHT22;3896;48.758;8.888;2022-11-15T08:22:58;9.40;99.90
7708;DHT22;3896;48.758;8.888;2022-11-15T08:25:25;9.50;99.90
7708;DHT22;3896;48.758;8.888;2022-11-15T08:28:02;9.60;99.90
7708;DHT22;3896;48.758;8.888;2022-11-15T08:30:28;9.70;99.90
7708;DHT22;3896;48.758;8.888;2022-11-15T08:32:56;9.80;99.90
7708;DHT22;3896;48.758;8.888;2022-11-15T08:35:23;9.80;99.90
7708;DHT22;3896;48.758;8.888;2022-11-15T08:37:49;9.90;99.90
7708;DHT22;3896;48.758;8.888;2022-11-15T08:40:14;10.00;99.90
7708;DHT22;3896;48.758;8.888;2022-11-15T08:42:40;10.10;99.90
7708;DHT22;3896;48.758;8.888;2022-11-15T08:45:07;10.20;99.90
7708;DHT22;3896;48.758;8.888;2022-11-15T08:47:34;10.30;99.90
7708;DHT22;3896;48.758;8.888;2022-11-15T08:50:00;10.40;99.90
7708;DHT22;3896;48.758;8.888;2022-11-15T08:52:26;10.40;99.90
7708;DHT22;3896;48.758;8.888;2022-11-15T08:54:51;10.50;99.90
7708;DHT22;3896;48.758;8.888;2022-11-15T08:57:17;10.60;99.90
7708;DHT22;3896;48.758;8.888;2022-11-15T08:59:43;10.70;99.90
7708;DHT22;3896;48.758;8.888;2022-11-15T09:02:13;10.80;99.90
7708;DHT22;3896;48.758;8.888;2022-11-15T09:04:42;10.90;99.90
7708;DHT22;3896;48.758;8.888;2022-11-15T09:07:11;10.90;99.90
7708;DHT22;3896;48.758;8.888;2022-11-15T09:09:37;11.00;99.90
7708;DHT22;3896;48.758;8.888;2022-11-15T09:12:04;11.10;99.90
7708;DHT22;3896;48.758;8.888;2022-11-15T09:14:30;11.20;99.90
7708;DHT22;3896;48.758;8.888;2022-11-15T09:16:55;11.30;99.90
7708;DHT22;3896;48.758;8.888;2022-11-15T09:19:21;11.30;99.90
7708;DHT22;3896;48.758;8.888;2022-11-15T09:21:47;11.40;99.90
7708;DHT22;3896;48.758;8.888;2022-11-15T09:24:13;11.50;99.90
7708;DHT22;3896;48.758;8.888;2022-11-15T09:26:39;11.60;99.90
7708;DHT22;3896;48.758;8.888;2022-11-15T09:29:04;11.70;99.90
7708;DHT22;3896;48.758;8.888;2022-11-15T09:31:30;11.80;99.90
7708;DHT22;3896;48.758;8.888;2022-11-15T09:33:55;11.80;99.90
7708;DHT22;3896;48.758;8.888;2022-11-15T09:36:21;11.90;99.90
7708;DHT22;3896;48.758;8.888;2022-11-15T09:38:47;12.00;99.90
7708;DHT22;3896;48.758;8.888;2022-11-15T09:49:29;12.40;99.90
7708;DHT22;3896;48.758;8.888;2022-11-15T09:51:56;12.40;99.90
7708;DHT22;3896;48.758;8.888;2022-11-15T09:54:39;12.50;99.90
7708;DHT22;3896;48.758;8.888;2022-11-15T09:57:20;12.60;99.90
7708;DHT22;3896;48.758;8.888;2022-11-15T09:59:58;12.60;99.90
7708;DHT22;3896;48.758;8.888;2022-11-15T10:02:50;12.70;99.90
7708;DHT22;3896;48.758;8.888;2022-11-15T10:05:22;12.80;99.90
7708;DHT22;3896;48.758;8.888;2022-11-15T10:10:46;12.90;99.90
7708;DHT22;3896;48.758;8.888;2022-11-15T10:13:32;12.90;99.90
7708;DHT22;3896;48.758;8.888;2022-11-15T10:16:25;13.00;99.90
7708;DHT22;3896;48.758;8.888;2022-11-15T10:24:35;13.20;99.90
7708;DHT22;3896;48.758;8.888;2022-11-15T10:27:12;13.30;99.90
7708;DHT22;3896;48.758;8.888;2022-11-15T10:29:46;13.30;99.90
7708;DHT22;3896;48.758;8.888;2022-11-15T10:32:15;13.40;99.90
7708;DHT22;3896;48.758;8.888;2022-11-15T10:34:41;13.40;99.90
7708;DHT22;3896;48.758;8.888;2022-11-15T10:37:07;13.50;99.90
7708;DHT22;3896;48.758;8.888;2022-11-15T10:39:33;13.50;99.90
7708;DHT22;3896;48.758;8.888;2022-11-15T10:42:27;13.60;99.90
7708;DHT22;3896;48.758;8.888;2022-11-15T10:44:53;13.60;99.90
7708;DHT22;3896;48.758;8.888;2022-11-15T10:47:29;13.70;99.90
7708;DHT22;3896;48.758;8.888;2022-11-15T10:50:02;13.70;99.90
7708;DHT22;3896;48.758;8.888;2022-11-15T10:52:29;13.80;99.90
7708;DHT22;3896;48.758;8.888;2022-11-15T10:55:04;13.80;99.90
7708;DHT22;3896;48.758;8.888;2022-11-15T10:57:37;13.80;99.90
7708;DHT22;3896;48.758;8.888;2022-11-15T11:05:05;14.00;99.90
7708;DHT22;3896;48.758;8.888;2022-11-15T11:07:34;14.00;99.90
7708;DHT22;3896;48.758;8.888;2022-11-15T11:12:39;14.10;99.90
7708;DHT22;3896;48.758;8.888;2022-11-15T11:15:12;14.10;99.90
7708;DHT22;3896;48.758;8.888;2022-11-15T11:18:05;14.10;99.90
7708;DHT22;3896;48.758;8.888;2022-11-15T11:20:40;14.10;99.90
7708;DHT22;3896;48.758;8.888;2022-11-15T11:35:11;14.30;99.90
7708;DHT22;3896;48.758;8.888;2022-11-15T11:43:11;14.40;99.90
7708;DHT22;3896;48.758;8.888;2022-11-15T11:46:02;14.40;99.90
7708;DHT22;3896;48.758;8.888;2022-11-15T11:48:44;14.50;99.90
7708;DHT22;3896;48.758;8.888;2022-11-15T11:51:38;14.50;99.90
7708;DHT22;3896;48.758;8.888;2022-11-15T11:54:16;14.60;99.90
7708;DHT22;3896;48.758;8.888;2022-11-15T11:56:45;14.60;99.90
7708;DHT22;3896;48.758;8.888;2022-11-15T12:01:54;14.70;99.90
7708;DHT22;3896;48.758;8.888;2022-11-15T12:12:16;14.90;99.90
7708;DHT22;3896;48.758;8.888;2022-11-15T12:17:33;14.90;99.90
7708;DHT22;3896;48.758;8.888;2022-11-15T12:20:02;15.00;99.90
7708;DHT22;3896;48.758;8.888;2022-11-15T12:23:32;15.00;99.90
7708;DHT22;3896;48.758;8.888;2022-11-15T12:28:04;15.00;99.60
7708;DHT22;3896;48.758;8.888;2022-11-15T12:30:45;15.10;99.20
7708;DHT22;3896;48.758;8.888;2022-11-15T12:33:37;15.10;99.00
7708;DHT22;3896;48.758;8.888;2022-11-15T12:39:06;15.10;98.80
7708;DHT22;3896;48.758;8.888;2022-11-15T12:41:37;15.10;99.10
7708;DHT22;3896;48.758;8.888;2022-11-15T12:44:04;15.10;99.00
7708;DHT22;3896;48.758;8.888;2022-11-15T12:52:08;15.20;98.80
7708;DHT22;3896;48.758;8.888;2022-11-15T12:59:58;15.20;98.70
7708;DHT22;3896;48.758;8.888;2022-11-15T13:02:35;15.20;98.50
7708;DHT22;3896;48.758;8.888;2022-11-15T13:17:47;15.40;97.60
7708;DHT22;3896;48.758;8.888;2022-11-15T13:22:52;15.40;97.50
7708;DHT22;3896;48.758;8.888;2022-11-15T13:28:21;15.40;97.30
7708;DHT22;3896;48.758;8.888;2022-11-15T13:30:54;15.40;97.20
7708;DHT22;3896;48.758;8.888;2022-11-15T13:33:35;15.40;97.10
7708;DHT22;3896;48.758;8.888;2022-11-15T13:36:35;15.40;97.10
7708;DHT22;3896;48.758;8.888;2022-11-15T13:39:04;15.40;97.00
7708;DHT22;3896;48.758;8.888;2022-11-15T13:41:32;15.40;96.60
7708;DHT22;3896;48.758;8.888;2022-11-15T13:43:59;15.40;96.20
7708;DHT22;3896;48.758;8.888;2022-11-15T13:46:28;15.40;96.00
7708;DHT22;3896;48.758;8.888;2022-11-15T13:49:00;15.40;95.80
7708;DHT22;3896;48.758;8.888;2022-11-15T13:56:42;15.30;95.30
7708;DHT22;3896;48.758;8.888;2022-11-15T13:59:14;15.30;95.10
7708;DHT22;3896;48.758;8.888;2022-11-15T14:01:42;15.30;95.00
7708;DHT22;3896;48.758;8.888;2022-11-15T14:04:13;15.20;94.80
7708;DHT22;3896;48.758;8.888;2022-11-15T14:06:50;15.20;95.00
7708;DHT22;3896;48.758;8.888;2022-11-15T14:11:53;15.20;95.20
7708;DHT22;3896;48.758;8.888;2022-11-15T14:14:21;15.20;95.30
7708;DHT22;3896;48.758;8.888;2022-11-15T14:16:50;15.10;95.30
7708;DHT22;3896;48.758;8.888;2022-11-15T14:24:33;15.10;95.40
7708;DHT22;3896;48.758;8.888;2022-11-15T14:27:34;15.10;95.50
7708;DHT22;3896;48.758;8.888;2022-11-15T14:30:00;15.00;95.50
7708;DHT22;3896;48.758;8.888;2022-11-15T14:32:42;15.10;95.70
7708;DHT22;3896;48.758;8.888;2022-11-15T14:35:12;15.10;95.60
7708;DHT22;3896;48.758;8.888;2022-11-15T14:37:39;15.10;95.80
7708;DHT22;3896;48.758;8.888;2022-11-15T14:40:05;15.00;95.90
7708;DHT22;3896;48.758;8.888;2022-11-15T14:42:32;15.00;95.90
7708;DHT22;3896;48.758;8.888;2022-11-15T14:44:58;15.00;96.00
7708;DHT22;3896;48.758;8.888;2022-11-15T14:47:23;15.00;96.20
7708;DHT22;3896;48.758;8.888;2022-11-15T14:49:49;15.00;96.30
7708;DHT22;3896;48.758;8.888;2022-11-15T14:52:31;15.00;96.40
7708;DHT22;3896;48.758;8.888;2022-11-15T14:55:03;14.90;96.50
7708;DHT22;3896;48.758;8.888;2022-11-15T14:57:29;14.90;96.70
7708;DHT22;3896;48.758;8.888;2022-11-15T14:59:55;14.90;96.60
7708;DHT22;3896;48.758;8.888;2022-11-15T15:02:24;14.90;96.60
7708;DHT22;3896;48.758;8.888;2022-11-15T15:04:50;14.90;96.80
7708;DHT22;3896;48.758;8.888;2022-11-15T15:07:17;14.80;96.90
7708;DHT22;3896;48.758;8.888;2022-11-15T15:09:44;14.80;97.00
7708;DHT22;3896;48.758;8.888;2022-11-15T15:12:21;14.80;97.30
7708;DHT22;3896;48.758;8.888;2022-11-15T15:14:48;14.80;97.70
7708;DHT22;3896;48.758;8.888;2022-11-15T15:17:14;14.80;98.10
7708;DHT22;3896;48.758;8.888;2022-11-15T15:19:40;14.70;98.50
7708;DHT22;3896;48.758;8.888;2022-11-15T15:22:08;14.70;98.60
7708;DHT22;3896;48.758;8.888;2022-11-15T15:24:34;14.70;98.70
7708;DHT22;3896;48.758;8.888;2022-11-15T15:27:00;14.70;98.80
7708;DHT22;3896;48.758;8.888;2022-11-15T15:29:25;14.60;99.10
7708;DHT22;3896;48.758;8.888;2022-11-15T15:31:51;14.60;99.20
7708;DHT22;3896;48.758;8.888;2022-11-15T15:34:17;14.50;99.40
7708;DHT22;3896;48.758;8.888;2022-11-15T15:36:42;14.50;99.60
7708;DHT22;3896;48.758;8.888;2022-11-15T15:39:09;14.50;99.90
7708;DHT22;3896;48.758;8.888;2022-11-15T15:41:35;14.50;99.90
7708;DHT22;3896;48.758;8.888;2022-11-15T15:44:01;14.40;99.90
7708;DHT22;3896;48.758;8.888;2022-11-15T15:46:27;14.40;99.90
7708;DHT22;3896;48.758;8.888;2022-11-15T15:48:52;14.40;99.90
7708;DHT22;3896;48.758;8.888;2022-11-15T15:51:18;14.30;99.90
7708;DHT22;3896;48.758;8.888;2022-11-15T15:53:44;14.30;99.90
7708;DHT22;3896;48.758;8.888;2022-11-15T15:56:09;14.30;99.90
7708;DHT22;3896;48.758;8.888;2022-11-15T15:58:35;14.30;99.90
7708;DHT22;3896;48.758;8.888;2022-11-15T16:01:01;14.30;99.90
7708;DHT22;3896;48.758;8.888;2022-11-15T16:03:26;14.20;99.90
7708;DHT22;3896;48.758;8.888;2022-11-15T16:05:53;14.20;99.90
7708;DHT22;3896;48.758;8.888;2022-11-15T16:08:21;14.20;99.90
7708;DHT22;3896;48.758;8.888;2022-11-15T16:10:47;14.10;99.90
7708;DHT22;3896;48.758;8.888;2022-11-15T16:13:12;14.10;99.90
7708;DHT22;3896;48.758;8.888;2022-11-15T16:15:38;14.10;99.90
7708;DHT22;3896;48.758;8.888;2022-11-15T16:18:04;14.10;99.90
7708;DHT22;3896;48.758;8.888;2022-11-15T16:20:37;14.00;99.90
7708;DHT22;3896;48.758;8.888;2022-11-15T16:23:05;14.00;99.90
7708;DHT22;3896;48.758;8.888;2022-11-15T16:25:41;14.00;99.90
7708;DHT22;3896;48.758;8.888;2022-11-15T16:28:28;14.00;99.90
7708;DHT22;3896;48.758;8.888;2022-11-15T16:33:26;13.90;99.90
7708;DHT22;3896;48.758;8.888;2022-11-15T16:35:52;13.90;99.90
7708;DHT22;3896;48.758;8.888;2022-11-15T16:38:18;13.90;99.90
7708;DHT22;3896;48.758;8.888;2022-11-15T16:40:43;13.80;99.90
7708;DHT22;3896;48.758;8.888;2022-11-15T16:43:09;13.80;99.90
7708;DHT22;3896;48.758;8.888;2022-11-15T16:45:35;13.80;99.90
7708;DHT22;3896;48.758;8.888;2022-11-15T16:48:01;13.70;99.90
7708;DHT22;3896;48.758;8.888;2022-11-15T16:50:30;13.70;99.90
7708;DHT22;3896;48.758;8.888;2022-11-15T16:52:58;13.70;99.90
7708;DHT22;3896;48.758;8.888;2022-11-15T16:55:26;13.70;99.90
7708;DHT22;3896;48.758;8.888;2022-11-15T16:57:52;13.70;99.90
7708;DHT22;3896;48.758;8.888;2022-11-15T17:00:20;13.60;99.90
7708;DHT22;3896;48.758;8.888;2022-11-15T17:02:47;13.60;99.90
7708;DHT22;3896;48.758;8.888;2022-11-15T17:05:13;13.60;99.90
7708;DHT22;3896;48.758;8.888;2022-11-15T17:07:40;13.60;99.90
7708;DHT22;3896;48.758;8.888;2022-11-15T17:10:06;13.60;99.90
7708;DHT22;3896;48.758;8.888;2022-11-15T17:12:35;13.50;99.90
7708;DHT22;3896;48.758;8.888;2022-11-15T17:15:01;13.50;99.90
7708;DHT22;3896;48.758;8.888;2022-11-15T17:17:26;13.50;99.90
7708;DHT22;3896;48.758;8.888;2022-11-15T17:19:52;13.50;99.90
7708;DHT22;3896;48.758;8.888;2022-11-15T17:22:19;13.50;99.90
7708;DHT22;3896;48.758;8.888;2022-11-15T17:24:45;13.50;99.90
7708;DHT22;3896;48.758;8.888;2022-11-15T17:27:11;13.40;99.90
7708;DHT22;3896;48.758;8.888;2022-11-15T17:29:36;13.40;99.90
7708;DHT22;3896;48.758;8.888;2022-11-15T17:32:02;13.30;99.90
7708;DHT22;3896;48.758;8.888;2022-11-15T17:34:28;13.30;99.90
7708;DHT22;3896;48.758;8.888;2022-11-15T17:36:54;13.30;99.90
7708;DHT22;3896;48.758;8.888;2022-11-15T17:39:20;13.30;99.90
7708;DHT22;3896;48.758;8.888;2022-11-15T17:41:48;13.30;99.90
7708;DHT22;3896;48.758;8.888;2022-11-15T17:44:14;13.30;99.90
7708;DHT22;3896;48.758;8.888;2022-11-15T17:46:40;13.20;99.90
7708;DHT22;3896;48.758;8.888;2022-11-15T17:49:05;13.20;99.90
7708;DHT22;3896;48.758;8.888;2022-11-15T17:51:31;13.20;99.90
7708;DHT22;3896;48.758;8.888;2022-11-15T17:53:57;13.20;99.90
7708;DHT22;3896;48.758;8.888;2022-11-15T17:56:25;13.20;99.90
7708;DHT22;3896;48.758;8.888;2022-11-15T17:58:53;13.20;99.90
7708;DHT22;3896;48.758;8.888;2022-11-15T18:03:54;13.10;99.90
7708;DHT22;3896;48.758;8.888;2022-11-15T18:06:22;13.10;99.90
7708;DHT22;3896;48.758;8.888;2022-11-15T18:08:50;13.10;99.90
7708;DHT22;3896;48.758;8.888;2022-11-15T18:11:23;13.10;99.90
7708;DHT22;3896;48.758;8.888;2022-11-15T18:13:52;13.10;99.90
7708;DHT22;3896;48.758;8.888;2022-11-15T18:16:20;13.10;99.90
7708;DHT22;3896;48.758;8.888;2022-11-15T18:18:46;13.10;99.90
7708;DHT22;3896;48.758;8.888;2022-11-15T18:21:18;13.10;99.90
7708;DHT22;3896;48.758;8.888;2022-11-15T18:23:44;13.00;99.90
7708;DHT22;3896;48.758;8.888;2022-11-15T18:26:13;13.00;99.90
7708;DHT22;3896;48.758;8.888;2022-11-15T18:28:41;13.00;99.90
7708;DHT22;3896;48.758;8.888;2022-11-15T18:31:28;13.00;99.90
7708;DHT22;3896;48.758;8.888;2022-11-15T18:33:56;12.90;99.90
7708;DHT22;3896;48.758;8.888;2022-11-15T18:36:24;13.00;99.90
7708;DHT22;3896;48.758;8.888;2022-11-15T18:39:01;13.00;99.90
7708;DHT22;3896;48.758;8.888;2022-11-15T18:41:28;12.90;99.90
7708;DHT22;3896;48.758;8.888;2022-11-15T18:43:55;13.00;99.90
7708;DHT22;3896;48.758;8.888;2022-11-15T18:46:23;13.00;99.90
7708;DHT22;3896;48.758;8.888;2022-11-15T18:48:50;13.00;99.90
7708;DHT22;3896;48.758;8.888;2022-11-15T18:51:20;13.00;99.90
7708;DHT22;3896;48.758;8.888;2022-11-15T18:53:46;12.90;99.90